createdAt,value
2018-11-02T00:00:55.320Z,13.80
2018-11-02T00:03:23.560Z,13.77
2018-11-02T00:05:51.786Z,13.17
2018-11-02T00:08:20.022Z,12.07
2018-11-02T00:10:48.490Z,13.23
2018-11-02T00:13:16.724Z,11.83
2018-11-02T00:15:48.598Z,11.67
2018-11-02T00:18:20.176Z,12.00
2018-11-02T00:20:48.357Z,10.73
2018-11-02T00:23:16.555Z,11.17
2018-11-02T00:25:44.719Z,10.47
2018-11-02T00:28:13.050Z,10.40
2018-11-02T00:30:41.206Z,10.17
2018-11-02T00:33:09.418Z,10.50
2018-11-02T00:35:37.561Z,9.83
2018-11-02T00:38:05.785Z,10.03
2018-11-02T00:40:33.932Z,10.40
2018-11-02T00:43:03.055Z,10.33
2018-11-02T00:45:31.262Z,10.60
2018-11-02T00:47:59.382Z,10.70
2018-11-02T00:50:27.502Z,9.93
2018-11-02T00:52:55.655Z,10.63
2018-11-02T00:55:24.033Z,10.33
2018-11-02T00:57:52.219Z,10.87
2018-11-02T01:00:20.351Z,10.10
2018-11-02T01:02:48.472Z,10.10
2018-11-02T01:05:16.609Z,10.50
2018-11-02T01:07:44.725Z,10.10
2018-11-02T01:10:12.889Z,10.97
2018-11-02T01:12:41.376Z,10.37
2018-11-02T01:15:10.867Z,10.93
2018-11-02T01:17:38.994Z,10.60
2018-11-02T01:20:08.853Z,11.10
2018-11-02T01:22:36.973Z,10.00
2018-11-02T01:25:05.517Z,9.70
2018-11-02T01:27:33.660Z,10.57
2018-11-02T01:30:01.801Z,10.80
2018-11-02T01:32:29.914Z,10.37
2018-11-02T01:34:58.478Z,10.63
2018-11-02T01:37:26.737Z,10.37
2018-11-02T01:39:54.926Z,11.40
2018-11-02T01:42:23.097Z,10.57
2018-11-02T01:44:51.287Z,10.47
2018-11-02T01:47:23.231Z,11.90
2018-11-02T01:49:51.451Z,11.43
2018-11-02T01:52:19.628Z,12.27
2018-11-02T01:54:47.839Z,11.00
2018-11-02T01:57:15.989Z,12.67
2018-11-02T01:59:44.149Z,11.20
2018-11-02T02:02:12.314Z,11.20
2018-11-02T02:04:40.557Z,12.10
2018-11-02T02:07:09.155Z,12.20
2018-11-02T02:09:37.398Z,12.47
2018-11-02T02:12:05.737Z,12.63
2018-11-02T02:14:33.942Z,12.70
2018-11-02T02:17:02.190Z,11.67
2018-11-02T02:19:30.522Z,13.33
2018-11-02T02:21:58.748Z,13.03
2018-11-02T02:24:26.927Z,11.97
2018-11-02T02:26:59.637Z,12.70
2018-11-02T02:29:27.829Z,13.90
2018-11-02T02:31:56.258Z,12.50
2018-11-02T02:34:24.629Z,13.03
2018-11-02T02:36:52.827Z,13.53
2018-11-02T02:39:21.306Z,13.23
2018-11-02T02:41:49.565Z,13.60
2018-11-02T02:44:17.926Z,13.23
2018-11-02T02:46:46.126Z,13.50
2018-11-02T02:49:14.362Z,12.50
2018-11-02T02:51:42.571Z,14.10
2018-11-02T02:54:10.779Z,14.53
2018-11-02T02:56:38.973Z,13.20
2018-11-02T02:59:07.483Z,13.43
2018-11-02T03:01:35.718Z,13.97
2018-11-02T03:04:04.227Z,14.30
2018-11-02T03:06:32.501Z,13.83
2018-11-02T03:09:00.705Z,14.53
2018-11-02T03:11:28.883Z,15.07
2018-11-02T03:13:57.093Z,14.20
2018-11-02T03:16:25.263Z,17.47
2018-11-02T03:18:53.445Z,15.10
2018-11-02T03:21:23.684Z,16.80
2018-11-02T03:23:51.926Z,16.10
2018-11-02T03:26:20.247Z,15.60
2018-11-02T03:28:48.454Z,16.83
2018-11-02T03:31:16.903Z,14.93
2018-11-02T03:33:45.284Z,16.10
2018-11-02T03:36:13.492Z,16.43
2018-11-02T03:38:41.697Z,15.10
2018-11-02T03:41:10.634Z,14.87
2018-11-02T03:43:38.877Z,16.50
2018-11-02T03:46:07.170Z,16.50
2018-11-02T03:48:35.431Z,15.37
2018-11-02T03:51:03.706Z,16.20
2018-11-02T03:53:31.884Z,14.50
2018-11-02T03:56:00.242Z,15.67
2018-11-02T03:58:28.478Z,15.00
2018-11-02T04:00:56.722Z,14.93
2018-11-02T04:03:25.344Z,15.90
2018-11-02T04:05:53.582Z,15.70
2018-11-02T04:08:21.867Z,15.27
2018-11-02T04:10:50.095Z,15.23
2018-11-02T04:13:18.426Z,14.07
2018-11-02T04:15:46.645Z,15.63
2018-11-02T04:18:14.958Z,14.27
2018-11-02T04:20:43.560Z,15.00
2018-11-02T04:23:11.765Z,14.63
2018-11-02T04:25:39.996Z,14.83
2018-11-02T04:28:08.235Z,15.53
2018-11-02T04:30:36.551Z,14.77
2018-11-02T04:33:05.240Z,14.10
2018-11-02T04:35:33.708Z,15.40
2018-11-02T04:38:03.149Z,14.63
2018-11-02T04:40:34.604Z,14.83
2018-11-02T04:43:02.854Z,15.20
2018-11-02T04:45:36.398Z,15.00
2018-11-02T04:48:05.339Z,14.60
2018-11-02T04:50:33.878Z,14.20
2018-11-02T04:53:02.634Z,13.77
2018-11-02T04:55:30.870Z,13.63
2018-11-02T04:57:59.103Z,13.00
2018-11-02T05:00:31.442Z,12.93
2018-11-02T05:02:59.745Z,14.17
2018-11-02T05:05:29.003Z,12.70
2018-11-02T05:07:57.820Z,12.20
2018-11-02T05:10:26.254Z,12.70
2018-11-02T05:12:54.575Z,11.90
2018-11-02T05:15:22.964Z,12.50
2018-11-02T05:17:51.373Z,11.20
2018-11-02T05:20:19.547Z,9.93
2018-11-02T05:22:47.824Z,10.73
2018-11-02T05:25:18.938Z,11.40
2018-11-02T05:27:47.181Z,11.00
2018-11-02T05:30:15.652Z,9.77
2018-11-02T05:32:44.009Z,9.63
2018-11-02T05:35:12.197Z,9.70
2018-11-02T05:37:40.420Z,9.67
2018-11-02T05:40:09.149Z,9.70
2018-11-02T05:42:38.346Z,9.47
2018-11-02T05:45:06.817Z,9.47
2018-11-02T05:47:35.089Z,9.30
2018-11-02T05:50:03.567Z,9.70
2018-11-02T05:52:31.767Z,8.80
2018-11-02T05:55:00.057Z,9.00
2018-11-02T05:57:28.314Z,8.37
2018-11-02T05:59:56.523Z,7.43
2018-11-02T06:02:24.802Z,8.57
2018-11-02T06:04:52.999Z,7.80
2018-11-02T06:07:21.182Z,8.23
2018-11-02T06:09:49.364Z,7.67
2018-11-02T06:12:17.582Z,8.30
2018-11-02T06:14:45.854Z,8.57
2018-11-02T06:17:14.039Z,8.20
2018-11-02T06:19:42.259Z,7.83
2018-11-02T06:22:10.495Z,7.40
2018-11-02T06:24:38.685Z,7.00
2018-11-02T06:27:06.889Z,8.27
2018-11-02T06:29:35.198Z,8.40
2018-11-02T06:32:03.414Z,8.37
2018-11-02T06:34:31.583Z,8.50
2018-11-02T06:37:00.785Z,8.00
2018-11-02T06:39:28.903Z,8.80
2018-11-02T06:41:57.140Z,8.73
2018-11-02T06:44:25.330Z,8.40
2018-11-02T06:46:53.519Z,9.73
2018-11-02T06:49:21.716Z,9.77
2018-11-02T06:51:49.879Z,9.50
2018-11-02T06:54:18.108Z,9.40
2018-11-02T06:56:46.379Z,9.20
2018-11-02T06:59:14.603Z,9.43
2018-11-02T07:01:42.818Z,9.13
2018-11-02T07:04:11.150Z,9.13
2018-11-02T07:06:39.318Z,8.80
2018-11-02T07:09:09.371Z,9.07
2018-11-02T07:11:38.128Z,9.00
2018-11-02T07:14:06.594Z,8.80
2018-11-02T07:16:34.821Z,9.10
2018-11-02T07:19:02.933Z,8.50
2018-11-02T07:21:31.298Z,8.20
2018-11-02T07:24:00.054Z,9.67
2018-11-02T07:26:28.242Z,8.70
2018-11-02T07:28:56.450Z,9.20
2018-11-02T07:31:24.610Z,9.47
2018-11-02T07:33:52.841Z,9.30
2018-11-02T07:36:21.045Z,8.93
2018-11-02T07:38:49.224Z,8.97
2018-11-02T07:41:17.360Z,9.13
2018-11-02T07:43:45.609Z,9.00
2018-11-02T07:46:13.846Z,8.50
2018-11-02T07:48:42.060Z,8.83
2018-11-02T07:51:10.242Z,8.70
2018-11-02T07:53:38.609Z,8.20
2018-11-02T07:56:06.818Z,9.00
2018-11-02T07:58:34.965Z,8.80
2018-11-02T08:01:03.177Z,7.73
2018-11-02T08:03:31.515Z,8.53
2018-11-02T08:05:59.722Z,6.97
2018-11-02T08:08:27.977Z,7.47
2018-11-02T08:10:59.796Z,7.97
2018-11-02T08:13:27.953Z,7.10
2018-11-02T08:15:56.110Z,6.23
2018-11-02T08:18:27.755Z,6.27
2018-11-02T08:20:55.959Z,7.00
2018-11-02T08:23:24.145Z,7.43
2018-11-02T08:25:52.280Z,7.63
2018-11-02T08:28:20.526Z,6.80
2018-11-02T08:30:48.665Z,7.87
2018-11-02T08:33:16.817Z,6.90
2018-11-02T08:35:45.003Z,7.43
2018-11-02T08:38:13.163Z,7.90
2018-11-02T08:40:41.332Z,6.80
2018-11-02T08:43:09.525Z,7.33
2018-11-02T08:45:37.752Z,6.50
2018-11-02T08:48:05.937Z,6.93
2018-11-02T08:50:34.122Z,6.50
2018-11-02T08:53:05.775Z,6.33
2018-11-02T08:55:34.023Z,6.07
2018-11-02T08:58:02.487Z,6.77
2018-11-02T09:00:30.610Z,6.80
2018-11-02T09:02:58.767Z,6.20
2018-11-02T09:05:26.961Z,6.10
2018-11-02T09:07:55.185Z,5.87
2018-11-02T09:10:23.458Z,5.60
2018-11-02T09:12:51.834Z,5.20
2018-11-02T09:15:19.991Z,5.80
2018-11-02T09:17:48.181Z,6.53
2018-11-02T09:20:16.402Z,5.90
2018-11-02T09:22:44.659Z,5.57
2018-11-02T09:25:12.878Z,6.67
2018-11-02T09:27:44.496Z,6.43
2018-11-02T09:30:14.875Z,5.57
2018-11-02T09:32:43.549Z,6.43
2018-11-02T09:35:11.886Z,6.37
2018-11-02T09:37:43.666Z,5.13
2018-11-02T09:40:12.317Z,5.50
2018-11-02T09:42:40.493Z,5.07
2018-11-02T09:45:10.621Z,5.20
2018-11-02T09:47:38.822Z,4.80
2018-11-02T09:50:07.481Z,5.47
2018-11-02T09:52:36.361Z,5.00
2018-11-02T09:55:04.750Z,4.20
2018-11-02T09:57:36.214Z,5.50
2018-11-02T10:00:08.882Z,5.20
2018-11-02T10:02:37.140Z,5.03
2018-11-02T10:05:06.423Z,4.57
2018-11-02T10:07:34.715Z,5.00
2018-11-02T10:10:02.888Z,4.27
2018-11-02T10:12:31.094Z,4.47
2018-11-02T10:15:02.928Z,4.23
2018-11-02T10:17:31.161Z,4.90
2018-11-02T10:19:59.337Z,4.10
2018-11-02T10:22:27.636Z,4.97
2018-11-02T10:24:55.883Z,4.73
2018-11-02T10:27:24.226Z,4.30
2018-11-02T10:29:52.438Z,5.10
2018-11-02T10:32:20.598Z,4.40
2018-11-02T10:34:48.757Z,5.23
2018-11-02T10:37:16.910Z,4.00
2018-11-02T10:39:45.384Z,3.97
2018-11-02T10:42:13.506Z,4.03
2018-11-02T10:44:43.097Z,3.80
2018-11-02T10:47:15.286Z,4.20
2018-11-02T10:49:43.441Z,4.63
2018-11-02T10:52:11.602Z,4.37
2018-11-02T10:54:39.875Z,4.40
2018-11-02T10:57:08.139Z,4.83
2018-11-02T10:59:36.371Z,4.30
2018-11-02T11:02:06.866Z,4.77
2018-11-02T11:04:35.414Z,4.73
2018-11-02T11:07:04.027Z,5.37
2018-11-02T11:09:32.278Z,5.20
2018-11-02T11:12:00.563Z,4.87
2018-11-02T11:14:28.978Z,4.40
2018-11-02T11:16:57.133Z,4.77
2018-11-02T11:19:25.273Z,5.13
2018-11-02T11:21:53.472Z,4.93
2018-11-02T11:24:21.651Z,4.73
2018-11-02T11:26:49.817Z,4.80
2018-11-02T11:29:18.007Z,5.10
2018-11-02T11:31:46.148Z,4.50
2018-11-02T11:34:14.314Z,5.10
2018-11-02T11:36:42.556Z,5.10
2018-11-02T11:39:12.646Z,4.30
2018-11-02T11:41:40.875Z,4.60
2018-11-02T11:44:09.324Z,4.50
2018-11-02T11:46:37.538Z,4.57
2018-11-02T11:49:06.577Z,4.73
2018-11-02T11:51:34.625Z,5.30
2018-11-02T11:54:02.877Z,4.80
2018-11-02T11:56:31.051Z,4.67
2018-11-02T11:58:59.398Z,4.80
2018-11-02T12:01:27.542Z,4.37
2018-11-02T12:03:55.783Z,11.23
2018-11-02T12:06:24.023Z,4.63
2018-11-02T12:08:52.311Z,4.70
2018-11-02T12:11:20.483Z,9.67
2018-11-02T12:13:48.632Z,4.00
2018-11-02T12:16:16.774Z,3.73
2018-11-02T12:18:44.946Z,3.80
2018-11-02T12:21:13.216Z,3.60
2018-11-02T12:23:41.680Z,3.93
2018-11-02T12:26:09.848Z,3.63
2018-11-02T12:28:38.076Z,4.00
2018-11-02T12:31:06.384Z,3.97
2018-11-02T12:33:34.592Z,3.77
2018-11-02T12:36:02.731Z,4.00
2018-11-02T12:38:31.042Z,4.30
2018-11-02T12:40:59.408Z,3.47
2018-11-02T12:43:27.616Z,3.00
2018-11-02T12:45:55.898Z,3.80
2018-11-02T12:48:24.212Z,4.13
2018-11-02T12:50:52.321Z,3.33
2018-11-02T12:53:21.174Z,4.03
2018-11-02T12:55:49.410Z,3.97
2018-11-02T12:58:17.606Z,4.30
2018-11-02T13:00:45.903Z,4.07
2018-11-02T13:03:14.086Z,3.57
2018-11-02T13:05:42.329Z,3.70
2018-11-02T13:08:10.520Z,3.80
2018-11-02T13:10:38.773Z,3.13
2018-11-02T13:13:06.963Z,3.70
2018-11-02T13:15:35.199Z,3.23
2018-11-02T13:18:06.910Z,5.67
2018-11-02T13:20:35.074Z,2.97
2018-11-02T13:23:03.280Z,3.33
2018-11-02T13:25:31.543Z,3.60
2018-11-02T13:27:59.681Z,2.97
2018-11-02T13:30:27.993Z,3.23
2018-11-02T13:32:56.069Z,3.03
2018-11-02T13:35:24.357Z,2.60
2018-11-02T13:37:52.542Z,3.17
2018-11-02T13:40:20.765Z,2.60
2018-11-02T13:42:48.980Z,3.13
2018-11-02T13:45:17.999Z,4.43
2018-11-02T13:47:46.254Z,3.00
2018-11-02T13:50:14.578Z,3.23
2018-11-02T13:52:43.339Z,4.63
2018-11-02T13:55:12.126Z,3.77
2018-11-02T13:57:40.589Z,2.87
2018-11-02T14:00:11.045Z,3.10
2018-11-02T14:02:39.256Z,3.20
2018-11-02T14:05:08.479Z,3.47
2018-11-02T14:07:36.665Z,3.00
2018-11-02T14:10:05.354Z,3.40
2018-11-02T14:12:33.521Z,3.20
2018-11-02T14:15:01.711Z,2.93
2018-11-02T14:17:33.690Z,2.87
2018-11-02T14:20:01.859Z,3.50
2018-11-02T14:22:30.028Z,3.50
2018-11-02T14:24:58.198Z,3.80
2018-11-02T14:27:26.571Z,4.00
2018-11-02T14:29:54.851Z,3.40
2018-11-02T14:32:24.026Z,3.13
2018-11-02T14:34:52.210Z,3.83
2018-11-02T14:37:20.405Z,3.70
2018-11-02T14:39:48.582Z,3.20
2018-11-02T14:42:17.649Z,2.87
2018-11-02T14:44:49.134Z,3.63
2018-11-02T14:47:17.343Z,4.30
2018-11-02T14:49:45.599Z,3.70
2018-11-02T14:52:13.948Z,3.80
2018-11-02T14:54:42.112Z,3.33
2018-11-02T14:57:10.322Z,3.60
2018-11-02T14:59:38.534Z,3.53
2018-11-02T15:02:06.741Z,3.67
2018-11-02T15:04:34.895Z,3.93
2018-11-02T15:07:03.097Z,3.90
2018-11-02T15:09:31.270Z,3.70
2018-11-02T15:11:59.459Z,3.80
2018-11-02T15:14:27.663Z,3.27
2018-11-02T15:16:55.933Z,3.90
2018-11-02T15:19:24.095Z,3.40
2018-11-02T15:21:52.279Z,3.23
2018-11-02T15:24:20.448Z,3.17
2018-11-02T15:26:48.618Z,3.80
2018-11-02T15:29:16.790Z,4.10
2018-11-02T15:31:45.002Z,3.50
2018-11-02T15:34:13.149Z,3.57
2018-11-02T15:36:41.512Z,3.60
2018-11-02T15:39:11.996Z,4.30
2018-11-02T15:41:40.503Z,3.97
2018-11-02T15:44:08.712Z,3.70
2018-11-02T15:46:37.061Z,4.40
2018-11-02T15:49:05.898Z,5.20
2018-11-02T15:51:34.090Z,3.50
2018-11-02T15:54:03.027Z,3.10
2018-11-02T15:56:31.281Z,3.70
2018-11-02T15:58:59.454Z,4.30
2018-11-02T16:01:27.629Z,3.90
2018-11-02T16:03:59.558Z,3.60
2018-11-02T16:06:27.725Z,3.70
2018-11-02T16:08:55.886Z,3.23
2018-11-02T16:11:24.127Z,3.23
2018-11-02T16:13:52.327Z,3.37
2018-11-02T16:16:20.537Z,3.90
2018-11-02T16:18:48.725Z,3.70
2018-11-02T16:21:16.913Z,3.43
2018-11-02T16:23:45.105Z,2.73
2018-11-02T16:26:13.278Z,4.50
2018-11-02T16:28:41.588Z,26.37
2018-11-02T16:31:09.874Z,38.83
2018-11-02T16:33:38.038Z,27.47
2018-11-02T16:36:06.261Z,15.67
2018-11-02T16:38:34.471Z,22.57
2018-11-02T16:41:02.635Z,44.33
2018-11-02T16:43:30.902Z,101.67
2018-11-02T16:45:59.046Z,13.67
2018-11-02T16:48:27.223Z,3.63
2018-11-02T16:50:55.399Z,12.60
2018-11-02T16:53:23.586Z,7.90
2018-11-02T16:55:53.855Z,10.50
2018-11-02T16:58:21.997Z,6.17
2018-11-02T17:00:50.150Z,4.17
2018-11-02T17:03:18.347Z,9.40
2018-11-02T17:05:46.543Z,70.40
2018-11-02T17:08:14.682Z,15.13
2018-11-02T17:10:42.845Z,13.13
2018-11-02T17:13:11.023Z,10.00
2018-11-02T17:15:39.342Z,12.37
2018-11-02T17:18:07.629Z,13.50
2018-11-02T17:20:35.733Z,12.10
2018-11-02T17:23:03.926Z,12.63
2018-11-02T17:25:32.119Z,13.37
2018-11-02T17:28:00.326Z,12.40
2018-11-02T17:30:28.595Z,12.03
2018-11-02T17:32:56.784Z,11.20
2018-11-02T17:35:24.944Z,10.33
2018-11-02T17:37:53.154Z,10.10
2018-11-02T17:40:21.772Z,10.37
2018-11-02T17:42:49.954Z,9.80
2018-11-02T17:45:18.114Z,9.10
2018-11-02T17:47:46.427Z,15.27
2018-11-02T17:50:15.155Z,7.37
2018-11-02T17:52:43.465Z,8.07
2018-11-02T17:55:11.641Z,10.00
2018-11-02T17:57:39.802Z,9.47
2018-11-02T18:00:09.275Z,17.40
2018-11-02T18:02:37.468Z,10.40
2018-11-02T18:05:06.404Z,10.00
2018-11-02T18:07:34.583Z,9.03
2018-11-02T18:10:02.871Z,9.50
2018-11-02T18:12:31.050Z,10.97
2018-11-02T18:14:59.238Z,11.20
2018-11-02T18:17:27.417Z,11.67
2018-11-02T18:19:55.620Z,12.40
2018-11-02T18:22:23.914Z,11.73
2018-11-02T18:24:52.006Z,16.30
2018-11-02T18:27:20.180Z,23.17
2018-11-02T18:29:48.381Z,13.67
2018-11-02T18:32:16.553Z,12.97
2018-11-02T18:34:44.786Z,13.43
2018-11-02T18:37:12.888Z,14.27
2018-11-02T18:39:41.033Z,16.67
2018-11-02T18:42:09.183Z,21.83
2018-11-02T18:44:37.354Z,16.73
2018-11-02T18:47:05.539Z,14.27
2018-11-02T18:49:33.678Z,11.60
2018-11-02T18:52:01.841Z,11.70
2018-11-02T18:54:30.009Z,12.27
2018-11-02T18:56:58.168Z,12.57
2018-11-02T18:59:26.322Z,11.80
2018-11-02T19:01:54.491Z,14.00
2018-11-02T19:04:22.653Z,13.47
2018-11-02T19:06:50.797Z,18.50
2018-11-02T19:09:18.941Z,12.07
2018-11-02T19:11:47.097Z,11.37
2018-11-02T19:14:15.262Z,13.33
2018-11-02T19:16:43.421Z,13.50
2018-11-02T19:19:11.558Z,13.17
2018-11-02T19:21:39.780Z,27.03
2018-11-02T19:24:07.877Z,21.77
2018-11-02T19:26:36.040Z,14.80
2018-11-02T19:29:04.399Z,16.63
2018-11-02T19:31:32.551Z,19.53
2018-11-02T19:34:00.773Z,16.23
2018-11-02T19:36:28.836Z,15.80
2018-11-02T19:38:57.005Z,37.27
2018-11-02T19:41:25.195Z,15.50
2018-11-02T19:43:53.341Z,16.80
2018-11-02T19:46:21.556Z,16.13
2018-11-02T19:48:49.789Z,15.30
2018-11-02T19:51:21.493Z,14.80
2018-11-02T19:53:49.657Z,20.50
2018-11-02T19:56:17.843Z,15.57
2018-11-02T19:58:46.030Z,21.80
2018-11-02T20:01:14.229Z,25.30
2018-11-02T20:03:43.226Z,23.80
2018-11-02T20:06:11.393Z,23.63
2018-11-02T20:08:39.682Z,22.33
2018-11-02T20:11:07.874Z,20.10
2018-11-02T20:13:36.081Z,20.77
2018-11-02T20:16:04.281Z,17.20
2018-11-02T20:18:32.468Z,15.87
2018-11-02T20:21:00.655Z,17.00
2018-11-02T20:23:28.840Z,16.37
2018-11-02T20:25:57.091Z,15.07
2018-11-02T20:28:25.660Z,15.40
2018-11-02T20:30:53.854Z,16.47
2018-11-02T20:33:22.026Z,16.63
2018-11-02T20:35:50.196Z,14.70
2018-11-02T20:38:18.407Z,14.47
2018-11-02T20:40:46.581Z,14.87
2018-11-02T20:43:14.776Z,16.53
2018-11-02T20:45:42.944Z,15.40
2018-11-02T20:48:11.133Z,14.53
2018-11-02T20:50:39.307Z,17.10
2018-11-02T20:53:08.048Z,15.83
2018-11-02T20:55:36.225Z,13.83
2018-11-02T20:58:04.475Z,14.33
2018-11-02T21:00:32.655Z,14.43
2018-11-02T21:03:00.847Z,16.53
2018-11-02T21:05:29.088Z,16.57
2018-11-02T21:07:57.196Z,15.83
2018-11-02T21:10:25.376Z,15.63
2018-11-02T21:12:53.555Z,20.57
2018-11-02T21:15:23.026Z,18.60
2018-11-02T21:17:51.697Z,18.03
2018-11-02T21:20:22.048Z,18.33
2018-11-02T21:22:50.212Z,18.60
2018-11-02T21:25:18.381Z,17.77
2018-11-02T21:27:46.989Z,17.33
2018-11-02T21:30:17.999Z,17.73
2018-11-02T21:32:47.096Z,17.27
2018-11-02T21:35:15.893Z,18.57
2018-11-02T21:37:44.135Z,20.23
2018-11-02T21:40:13.761Z,19.20
2018-11-02T21:42:42.338Z,17.93
2018-11-02T21:45:11.238Z,17.63
2018-11-02T21:47:39.493Z,17.97
2018-11-02T21:50:08.406Z,18.17
2018-11-02T21:52:36.591Z,15.77
2018-11-02T21:55:05.088Z,16.50
2018-11-02T21:57:33.350Z,15.70
2018-11-02T22:00:01.581Z,16.60
2018-11-02T22:02:29.799Z,15.80
2018-11-02T22:04:58.001Z,16.90
2018-11-02T22:07:26.206Z,19.23
2018-11-02T22:09:54.454Z,17.87
2018-11-02T22:12:22.643Z,17.40
2018-11-02T22:14:50.820Z,16.40
2018-11-02T22:17:19.014Z,19.17
2018-11-02T22:19:47.212Z,18.00
2018-11-02T22:22:15.380Z,17.63
2018-11-02T22:24:43.559Z,17.63
2018-11-02T22:27:12.006Z,18.63
2018-11-02T22:29:40.248Z,18.83
2018-11-02T22:32:09.423Z,19.03
2018-11-02T22:34:37.633Z,21.10
2018-11-02T22:37:06.034Z,19.83
2018-11-02T22:39:34.238Z,19.20
2018-11-02T22:44:58.345Z,18.40
2018-11-02T22:47:30.890Z,20.57
2018-11-02T22:49:59.054Z,22.10
2018-11-02T22:52:27.454Z,20.80
2018-11-02T22:54:55.615Z,20.30
2018-11-02T22:57:23.771Z,24.20
2018-11-02T22:59:51.921Z,23.97
2018-11-02T23:02:20.079Z,22.40
2018-11-02T23:04:50.263Z,22.57
2018-11-02T23:07:18.425Z,19.70
2018-11-02T23:09:46.590Z,20.73
2018-11-02T23:12:14.737Z,21.73
2018-11-02T23:14:42.893Z,22.37
2018-11-02T23:17:13.097Z,20.17
2018-11-02T23:19:41.238Z,20.27
2018-11-02T23:22:09.370Z,22.70
2018-11-02T23:24:37.569Z,21.57
2018-11-02T23:27:05.713Z,21.30
2018-11-02T23:29:33.937Z,21.30
2018-11-02T23:32:03.837Z,21.03
2018-11-02T23:34:31.989Z,23.53
2018-11-02T23:37:00.192Z,23.37
2018-11-02T23:39:28.354Z,22.60
2018-11-02T23:41:56.502Z,21.00
2018-11-02T23:44:24.657Z,20.00
2018-11-02T23:46:52.805Z,18.33
2018-11-02T23:49:20.946Z,19.10
2018-11-02T23:51:49.098Z,19.67
2018-11-02T23:54:17.266Z,18.90
2018-11-02T23:56:45.447Z,19.33
2018-11-02T23:59:13.599Z,18.73
